Time;durP1;ratioP1;P1;durP2;ratioP2;P2;SDS_P1;SDS_P2;PMS_P1;PMS_P2;Temp;Humidity;BMP_temperature;BMP_pressure;BME280_temperature;BME280_humidity;BME280_pressure;Samples;Min_cycle;Max_cycle;Signal;HPM_P1;HPM_P2
2022/03/24 00:02:18;;;;;;;5.28;3.40;;;;;;;;;;5032558;28;20033;-77
2022/03/24 00:04:44;;;;;;;4.82;2.55;;;;;;;;;;5032025;28;20038;-76
2022/03/24 00:07:11;;;;;;;8.05;3.15;;;;;;;;;;5032592;28;20029;-77
2022/03/24 00:09:37;;;;;;;8.52;3.42;;;;;;;;;;5030773;28;20037;-77
2022/03/24 00:12:05;;;;;;;7.10;3.38;;;;;;;;;;5031192;28;20445;-76
2022/03/24 00:14:31;;;;;;;8.73;3.38;;;;;;;;;;5032179;28;20470;-77
2022/03/24 00:16:57;;;;;;;4.68;3.00;;;;;;;;;;5031237;28;20029;-77
2022/03/24 00:19:23;;;;;;;6.63;3.40;;;;;;;;;;5032115;28;20072;-77
2022/03/24 00:21:49;;;;;;;7.13;3.17;;;;;;;;;;5030834;28;20392;-77
2022/03/24 00:24:16;;;;;;;6.60;3.20;;;;;;;;;;5032291;28;20028;-77
2022/03/24 00:26:42;;;;;;;9.05;3.60;;;;;;;;;;5032157;28;20033;-77
2022/03/24 00:29:09;;;;;;;7.00;3.65;;;;;;;;;;5032267;28;20037;-77
2022/03/24 00:31:36;;;;;;;8.13;2.92;;;;;;;;;;5032018;28;20476;-77
2022/03/24 00:34:02;;;;;;;6.38;3.00;;;;;;;;;;5032215;28;20029;-77
2022/03/24 00:36:28;;;;;;;6.18;2.80;;;;;;;;;;5032188;28;20100;-77
2022/03/24 00:38:55;;;;;;;5.30;2.55;;;;;;;;;;5031957;28;20592;-77
2022/03/24 00:41:21;;;;;;;5.50;2.92;;;;;;;;;;5032018;28;20033;-77
2022/03/24 00:43:48;;;;;;;6.95;3.22;;;;;;;;;;5031751;28;20029;-77
2022/03/24 00:46:15;;;;;;;7.22;3.78;;;;;;;;;;5032015;28;20038;-77
2022/03/24 00:48:41;;;;;;;3.85;2.60;;;;;;;;;;5031759;28;20033;-77
2022/03/24 00:51:07;;;;;;;5.57;3.03;;;;;;;;;;5031984;28;20025;-77
2022/03/24 00:53:33;;;;;;;6.45;2.78;;;;;;;;;;5031659;28;20413;-77
2022/03/24 00:55:59;;;;;;;7.82;3.72;;;;;;;;;;5031669;28;20029;-77
2022/03/24 00:58:25;;;;;;;8.13;3.40;;;;;;;;;;5030578;28;20092;-77
2022/03/24 01:00:53;;;;;;;4.80;2.35;;;;;;;;;;5031635;28;20021;-78
2022/03/24 01:03:20;;;;;;;6.20;3.25;;;;;;;;;;5032060;28;20091;-76
2022/03/24 01:05:47;;;;;;;6.80;3.03;;;;;;;;;;5031537;28;20160;-77
2022/03/24 01:08:16;;;;;;;7.10;2.72;;;;;;;;;;5031820;28;20911;-77
2022/03/24 01:10:43;;;;;;;4.45;2.83;;;;;;;;;;5031486;28;20041;-78
2022/03/24 01:13:10;;;;;;;7.32;4.40;;;;;;;;;;5031921;28;20488;-77
2022/03/24 01:15:36;;;;;;;7.38;3.83;;;;;;;;;;5031672;28;20025;-77
2022/03/24 01:18:03;;;;;;;5.60;3.35;;;;;;;;;;5031683;28;20029;-76
2022/03/24 01:20:30;;;;;;;6.43;3.10;;;;;;;;;;5031709;28;20029;-77
2022/03/24 01:22:56;;;;;;;4.20;2.75;;;;;;;;;;5031428;28;20113;-77
2022/03/24 01:25:27;;;;;;;6.72;3.17;;;;;;;;;;5031646;28;20038;-77
2022/03/24 01:27:53;;;;;;;6.20;3.25;;;;;;;;;;5031407;28;20033;-76
2022/03/24 01:30:20;;;;;;;4.90;2.30;;;;;;;;;;5034629;28;20029;-77
2022/03/24 01:32:46;;;;;;;4.55;2.53;;;;;;;;;;5034848;28;20039;-77
2022/03/24 01:35:12;;;;;;;4.57;2.13;;;;;;;;;;5035464;28;20033;-77
2022/03/24 01:37:38;;;;;;;6.78;2.85;;;;;;;;;;5035148;28;20026;-77
2022/03/24 01:40:07;;;;;;;5.05;2.50;;;;;;;;;;5035036;28;20030;-76
2022/03/24 01:42:51;;;;;;;5.28;2.75;;;;;;;;;;5034965;28;20117;-77
2022/03/24 01:45:19;;;;;;;7.10;2.85;;;;;;;;;;5034918;28;20041;-77
2022/03/24 01:47:45;;;;;;;5.93;2.67;;;;;;;;;;5034742;28;20112;-77
2022/03/24 01:50:11;;;;;;;5.03;2.30;;;;;;;;;;5035010;28;20017;-77
2022/03/24 01:52:38;;;;;;;5.32;3.65;;;;;;;;;;5034390;28;20030;-77
2022/03/24 01:55:05;;;;;;;6.68;3.47;;;;;;;;;;5034767;28;20079;-77
2022/03/24 01:57:32;;;;;;;8.13;3.70;;;;;;;;;;5034466;28;20086;-77
2022/03/24 02:00:00;;;;;;;7.05;3.97;;;;;;;;;;5034869;28;20515;-76
2022/03/24 02:02:28;;;;;;;6.85;4.15;;;;;;;;;;5034482;28;20050;-77
2022/03/24 02:04:54;;;;;;;7.38;3.58;;;;;;;;;;5034556;28;20037;-77
2022/03/24 02:07:20;;;;;;;8.98;4.40;;;;;;;;;;5034649;28;20100;-77
2022/03/24 02:09:47;;;;;;;6.63;3.58;;;;;;;;;;5034246;28;20037;-77
2022/03/24 02:12:16;;;;;;;12.70;5.85;;;;;;;;;;5034455;28;20061;-77
2022/03/24 02:14:42;;;;;;;8.43;3.97;;;;;;;;;;5032877;28;20025;-77
2022/03/24 02:17:09;;;;;;;8.73;4.47;;;;;;;;;;5034535;28;20091;-77
2022/03/24 02:19:36;;;;;;;10.20;5.07;;;;;;;;;;5034115;28;20033;-77
2022/03/24 02:22:12;;;;;;;10.45;5.50;;;;;;;;;;5034424;28;20029;-76
2022/03/24 02:24:39;;;;;;;7.90;3.97;;;;;;;;;;5033847;28;20108;-77
2022/03/24 02:27:05;;;;;;;9.88;5.57;;;;;;;;;;5034230;28;20093;-77
2022/03/24 02:29:31;;;;;;;8.30;4.00;;;;;;;;;;5033818;28;20033;-77
2022/03/24 02:31:57;;;;;;;6.40;3.65;;;;;;;;;;5034097;28;20444;-77
2022/03/24 02:34:47;;;;;;;9.52;4.18;;;;;;;;;;5034011;28;20079;-77
2022/03/24 02:37:15;;;;;;;11.77;4.78;;;;;;;;;;5033593;28;20522;-76
2022/03/24 02:39:45;;;;;;;10.32;5.00;;;;;;;;;;5033540;28;20032;-77
2022/03/24 02:42:15;;;;;;;11.50;6.13;;;;;;;;;;5032877;28;20163;-76
2022/03/24 02:44:51;;;;;;;9.60;5.53;;;;;;;;;;5033809;28;20025;-77
2022/03/24 02:47:18;;;;;;;14.43;6.28;;;;;;;;;;5033641;28;20026;-77
2022/03/24 02:49:46;;;;;;;11.77;6.72;;;;;;;;;;5033430;28;20037;-77
2022/03/24 02:52:12;;;;;;;9.38;5.60;;;;;;;;;;5032157;28;20426;-77
2022/03/24 02:54:39;;;;;;;7.45;3.78;;;;;;;;;;5033430;28;20497;-77
2022/03/24 02:57:05;;;;;;;10.23;6.05;;;;;;;;;;5033268;28;20022;-77
2022/03/24 02:59:31;;;;;;;8.35;4.93;;;;;;;;;;5033643;28;20034;-77
2022/03/24 03:02:05;;;;;;;8.48;4.57;;;;;;;;;;5033261;28;20029;-77
2022/03/24 03:04:32;;;;;;;7.60;4.37;;;;;;;;;;5033305;28;20025;-77
2022/03/24 03:07:00;;;;;;;8.13;4.53;;;;;;;;;;5033136;28;20602;-77
2022/03/24 03:09:26;;;;;;;7.30;4.68;;;;;;;;;;5033386;28;20085;-77
2022/03/24 03:11:53;;;;;;;9.40;4.13;;;;;;;;;;5033106;28;20090;-77
2022/03/24 03:14:20;;;;;;;8.73;3.78;;;;;;;;;;5033532;28;20358;-77
2022/03/24 03:16:47;;;;;;;6.05;3.22;;;;;;;;;;5033168;28;20104;-77
2022/03/24 03:19:14;;;;;;;7.32;3.17;;;;;;;;;;5033133;28;20079;-77
2022/03/24 03:21:40;;;;;;;9.40;5.00;;;;;;;;;;5033215;28;20033;-77
2022/03/24 03:24:07;;;;;;;7.28;3.50;;;;;;;;;;5032651;28;20029;-77
2022/03/24 03:26:33;;;;;;;6.40;3.85;;;;;;;;;;5033114;28;20052;-77
2022/03/24 03:28:59;;;;;;;6.80;3.92;;;;;;;;;;5032592;28;20061;-76
2022/03/24 03:31:25;;;;;;;9.00;4.07;;;;;;;;;;5033038;28;20088;-77
2022/03/24 03:33:52;;;;;;;12.65;6.80;;;;;;;;;;5032843;28;20104;-77
2022/03/24 03:36:19;;;;;;;12.02;6.10;;;;;;;;;;5032761;28;20025;-77
2022/03/24 03:38:45;;;;;;;9.07;5.95;;;;;;;;;;5032698;28;20033;-77
2022/03/24 03:41:12;;;;;;;8.82;5.25;;;;;;;;;;5032681;28;20026;-78
2022/03/24 03:43:38;;;;;;;8.45;5.13;;;;;;;;;;5032733;28;20025;-78
2022/03/24 03:46:04;;;;;;;7.93;4.85;;;;;;;;;;5032592;28;20033;-78
2022/03/24 03:48:31;;;;;;;6.65;3.78;;;;;;;;;;5032908;28;20499;-79
2022/03/24 03:50:58;;;;;;;7.38;3.55;;;;;;;;;;5032442;28;20455;-78
2022/03/24 03:53:24;;;;;;;5.72;3.72;;;;;;;;;;5031785;28;20073;-78
2022/03/24 03:55:50;;;;;;;8.65;4.78;;;;;;;;;;5032627;28;20040;-78
2022/03/24 03:58:16;;;;;;;9.20;4.20;;;;;;;;;;5031164;28;20512;-81
2022/03/24 04:03:27;;;;;;;;;;;;;;;;;;5033302;28;20038;-81
2022/03/24 04:05:58;;;;;;;8.18;4.93;;;;;;;;;;5032157;28;19917;-76
2022/03/24 04:08:24;;;;;;;11.15;5.00;;;;;;;;;;5032484;28;20029;-78
2022/03/24 04:10:50;;;;;;;7.88;4.10;;;;;;;;;;5032114;28;20021;-77
2022/03/24 04:13:20;;;;;;;9.95;4.50;;;;;;;;;;5032427;28;20048;-77
2022/03/24 04:15:47;;;;;;;8.07;4.22;;;;;;;;;;5032011;28;20030;-77
2022/03/24 04:18:13;;;;;;;10.65;4.90;;;;;;;;;;5032253;28;20036;-76
2022/03/24 04:20:40;;;;;;;7.75;4.47;;;;;;;;;;5032280;28;20025;-77
2022/03/24 04:23:06;;;;;;;14.93;7.85;;;;;;;;;;5031936;28;20036;-77
2022/03/24 04:25:33;;;;;;;18.77;10.63;;;;;;;;;;5032091;28;20124;-77
2022/03/24 04:28:00;;;;;;;15.57;10.73;;;;;;;;;;5032031;28;20034;-77
2022/03/24 04:30:26;;;;;;;15.45;10.25;;;;;;;;;;5032230;28;20025;-77
2022/03/24 04:32:53;;;;;;;18.52;11.13;;;;;;;;;;5032052;28;20030;-76
2022/03/24 04:35:19;;;;;;;16.38;8.60;;;;;;;;;;5032012;28;20034;-77
2022/03/24 04:37:46;;;;;;;13.48;7.03;;;;;;;;;;5032069;28;20026;-76
2022/03/24 04:40:15;;;;;;;17.65;9.70;;;;;;;;;;5032024;28;20461;-77
2022/03/24 04:42:42;;;;;;;67.32;30.25;;;;;;;;;;5032038;28;20079;-77
2022/03/24 04:45:09;;;;;;;48.38;20.35;;;;;;;;;;5031756;28;20096;-77
2022/03/24 04:47:35;;;;;;;16.85;9.15;;;;;;;;;;5031584;28;20036;-78
2022/03/24 04:50:01;;;;;;;12.05;8.27;;;;;;;;;;5031436;28;20446;-77
2022/03/24 04:52:27;;;;;;;19.90;11.38;;;;;;;;;;5032147;28;20029;-78
2022/03/24 04:54:54;;;;;;;17.58;12.20;;;;;;;;;;5031457;28;20459;-79
2022/03/24 04:57:21;;;;;;;16.52;10.35;;;;;;;;;;5031852;28;20033;-78
2022/03/24 04:59:47;;;;;;;57.70;31.65;;;;;;;;;;5031927;28;20087;-77
2022/03/24 05:02:15;;;;;;;48.40;31.20;;;;;;;;;;5025063;28;20135;-78
2022/03/24 05:04:44;;;;;;;31.23;18.98;;;;;;;;;;5014199;28;21941;-78
2022/03/24 05:07:11;;;;;;;50.97;29.00;;;;;;;;;;5015795;28;20034;-78
2022/03/24 05:09:37;;;;;;;14.55;7.50;;;;;;;;;;5016017;28;20426;-80
2022/03/24 05:12:04;;;;;;;13.27;8.55;;;;;;;;;;5033217;28;20057;-78
2022/03/24 05:14:31;;;;;;;16.88;8.95;;;;;;;;;;5035742;28;20032;-78
2022/03/24 05:16:57;;;;;;;16.08;8.75;;;;;;;;;;5035407;28;20026;-77
2022/03/24 05:19:23;;;;;;;14.23;8.07;;;;;;;;;;5035485;28;20026;-78
2022/03/24 05:21:49;;;;;;;31.23;15.30;;;;;;;;;;5035502;28;20427;-79
2022/03/24 05:24:16;;;;;;;13.07;8.52;;;;;;;;;;5035867;28;20028;-78
2022/03/24 05:26:42;;;;;;;13.77;8.55;;;;;;;;;;5035659;28;20065;-79
2022/03/24 05:29:09;;;;;;;16.20;8.55;;;;;;;;;;5035158;28;20025;-77
2022/03/24 05:31:35;;;;;;;13.38;8.25;;;;;;;;;;5035079;28;20579;-78
2022/03/24 05:34:01;;;;;;;13.40;8.43;;;;;;;;;;5034981;28;20064;-77
2022/03/24 05:36:27;;;;;;;104.30;59.58;;;;;;;;;;5035269;28;20376;-78
2022/03/24 05:38:54;;;;;;;23.60;13.13;;;;;;;;;;5034969;28;20392;-78
2022/03/24 05:41:20;;;;;;;42.00;25.38;;;;;;;;;;5035048;28;20033;-79
2022/03/24 05:46:31;;;;;;;80.57;51.70;;;;;;;;;;5034799;28;20044;-77
2022/03/24 05:48:58;;;;;;;24.20;14.30;;;;;;;;;;5034639;28;20053;-76
2022/03/24 05:51:24;;;;;;;22.35;10.20;;;;;;;;;;5017222;28;20033;-77
2022/03/24 05:53:51;;;;;;;24.00;13.90;;;;;;;;;;5014715;28;20069;-77
2022/03/24 05:56:18;;;;;;;21.08;13.57;;;;;;;;;;5014971;28;20489;-77
2022/03/24 05:58:44;;;;;;;18.48;10.80;;;;;;;;;;5014926;28;20029;-77
2022/03/24 06:01:11;;;;;;;15.70;6.85;;;;;;;;;;5014724;28;20033;-77
2022/03/24 06:03:37;;;;;;;14.35;6.55;;;;;;;;;;5013676;28;20072;-77
2022/03/24 06:06:08;;;;;;;10.43;5.43;;;;;;;;;;5014560;28;20045;-77
2022/03/24 06:08:35;;;;;;;11.90;5.85;;;;;;;;;;5014756;28;20465;-78
2022/03/24 06:11:01;;;;;;;10.70;6.28;;;;;;;;;;5014466;28;20362;-77
2022/03/24 06:13:28;;;;;;;8.18;5.60;;;;;;;;;;5014352;28;20389;-77
2022/03/24 06:15:55;;;;;;;9.65;5.32;;;;;;;;;;5014313;28;20030;-78
2022/03/24 06:18:21;;;;;;;9.07;5.85;;;;;;;;;;5014671;28;20033;-78
2022/03/24 06:20:47;;;;;;;8.80;5.25;;;;;;;;;;5013916;28;20033;-78
2022/03/24 06:23:14;;;;;;;9.65;5.63;;;;;;;;;;5013024;28;20389;-78
2022/03/24 06:25:43;;;;;;;8.70;5.13;;;;;;;;;;5014257;28;20045;-78
2022/03/24 06:28:09;;;;;;;9.68;5.38;;;;;;;;;;5014013;28;20064;-79
2022/03/24 06:30:35;;;;;;;7.68;5.03;;;;;;;;;;5014432;28;20037;-77
2022/03/24 06:33:01;;;;;;;7.80;5.13;;;;;;;;;;5032231;28;20108;-79
2022/03/24 06:35:28;;;;;;;9.15;5.65;;;;;;;;;;5033649;28;20041;-80
2022/03/24 06:37:54;;;;;;;11.70;5.30;;;;;;;;;;5031738;28;20029;-78
2022/03/24 06:40:21;;;;;;;8.73;4.93;;;;;;;;;;5028799;28;20030;-79
2022/03/24 06:42:47;;;;;;;12.05;5.68;;;;;;;;;;5032608;28;20052;-81
2022/03/24 06:45:14;;;;;;;17.63;12.27;;;;;;;;;;5032369;28;20034;-78
2022/03/24 06:47:40;;;;;;;26.77;15.63;;;;;;;;;;5032804;28;20192;-80
2022/03/24 06:50:10;;;;;;;10.60;6.45;;;;;;;;;;5032964;28;20104;-78
2022/03/24 06:52:36;;;;;;;13.52;6.68;;;;;;;;;;5032214;28;20380;-79
2022/03/24 06:55:06;;;;;;;18.63;9.80;;;;;;;;;;5031690;28;20036;-77
2022/03/24 06:57:32;;;;;;;12.13;7.00;;;;;;;;;;5031704;28;20544;-78
2022/03/24 06:59:58;;;;;;;10.13;6.40;;;;;;;;;;5033342;28;20021;-81
2022/03/24 07:02:24;;;;;;;14.05;8.50;;;;;;;;;;5033029;28;20021;-80
2022/03/24 07:04:50;;;;;;;11.57;6.75;;;;;;;;;;5033275;28;20024;-81
2022/03/24 07:07:17;;;;;;;12.30;7.32;;;;;;;;;;5032423;28;20473;-80
2022/03/24 07:09:43;;;;;;;16.08;9.15;;;;;;;;;;5031214;28;20069;-82
2022/03/24 07:12:10;;;;;;;14.27;8.23;;;;;;;;;;5033209;28;20084;-80
2022/03/24 07:14:36;;;;;;;17.38;10.20;;;;;;;;;;5033557;28;20033;-81
2022/03/24 07:17:02;;;;;;;18.98;9.25;;;;;;;;;;5033101;28;20033;-78
2022/03/24 07:19:28;;;;;;;20.38;10.52;;;;;;;;;;5031215;28;20032;-82
2022/03/24 07:21:54;;;;;;;17.17;9.85;;;;;;;;;;5033037;28;20025;-73
2022/03/24 07:24:20;;;;;;;15.70;7.90;;;;;;;;;;5032802;28;20029;-83
2022/03/24 07:26:47;;;;;;;16.63;8.23;;;;;;;;;;5033138;28;20038;-80
2022/03/24 07:29:13;;;;;;;29.73;20.67;;;;;;;;;;5022355;28;20428;-81
2022/03/24 07:31:41;;;;;;;17.58;9.18;;;;;;;;;;5031222;28;20061;-79
2022/03/24 07:34:07;;;;;;;14.77;7.40;;;;;;;;;;5032256;28;20073;-78
2022/03/24 07:36:33;;;;;;;12.43;7.35;;;;;;;;;;5032100;28;20465;-79
2022/03/24 07:38:59;;;;;;;16.50;7.45;;;;;;;;;;5031254;28;20064;-79
2022/03/24 07:41:26;;;;;;;17.13;7.20;;;;;;;;;;5018447;28;20034;-78
2022/03/24 07:43:53;;;;;;;12.93;7.32;;;;;;;;;;5012054;28;20478;-78
2022/03/24 07:46:21;;;;;;;14.23;8.20;;;;;;;;;;5025199;28;20047;-81
2022/03/24 07:48:48;;;;;;;15.43;7.60;;;;;;;;;;5030429;28;20037;-77
2022/03/24 07:51:14;;;;;;;12.18;7.57;;;;;;;;;;5031806;28;20039;-79
2022/03/24 07:54:00;;;;;;;14.93;7.47;;;;;;;;;;5046876;28;20493;-78
2022/03/24 07:56:28;;;;;;;14.35;7.53;;;;;;;;;;5047599;28;20431;-79
2022/03/24 07:58:54;;;;;;;18.58;7.93;;;;;;;;;;5031306;28;20037;-78
2022/03/24 08:01:25;;;;;;;13.27;7.30;;;;;;;;;;5031896;28;20385;-82
2022/03/24 08:03:52;;;;;;;12.52;7.05;;;;;;;;;;5030030;28;20029;-79
2022/03/24 08:06:18;;;;;;;19.10;7.13;;;;;;;;;;5031773;28;20179;-79
2022/03/24 08:08:45;;;;;;;12.77;7.70;;;;;;;;;;5031465;28;20397;-79
2022/03/24 08:11:11;;;;;;;14.48;7.55;;;;;;;;;;5030448;28;20025;-76
2022/03/24 08:13:37;;;;;;;13.07;8.15;;;;;;;;;;5030592;28;20029;-79
2022/03/24 08:16:04;;;;;;;12.07;7.28;;;;;;;;;;5031506;28;20100;-80
2022/03/24 08:18:31;;;;;;;18.45;8.15;;;;;;;;;;5030959;28;20033;-80
2022/03/24 08:20:57;;;;;;;12.10;7.03;;;;;;;;;;5031556;28;20033;-80
2022/03/24 08:23:23;;;;;;;11.80;7.45;;;;;;;;;;5031782;28;20509;-80
2022/03/24 08:25:49;;;;;;;14.88;7.57;;;;;;;;;;5031594;28;20037;-78
2022/03/24 08:28:16;;;;;;;17.85;7.05;;;;;;;;;;5031057;28;20108;-78
2022/03/24 08:30:42;;;;;;;17.73;7.65;;;;;;;;;;5030984;28;20156;-79
2022/03/24 08:33:11;;;;;;;15.20;6.75;;;;;;;;;;5030995;28;20520;-78
2022/03/24 08:35:38;;;;;;;18.77;7.78;;;;;;;;;;5031737;28;20121;-79
2022/03/24 08:38:05;;;;;;;10.55;5.75;;;;;;;;;;5031052;28;20029;-78
2022/03/24 08:40:31;;;;;;;14.38;8.60;;;;;;;;;;5034772;28;20029;-76
2022/03/24 08:42:57;;;;;;;10.57;7.50;;;;;;;;;;5035361;28;20060;-78
2022/03/24 08:45:23;;;;;;;17.98;8.52;;;;;;;;;;5034907;28;20030;-75
2022/03/24 08:47:49;;;;;;;17.33;8.95;;;;;;;;;;5034078;28;20084;-77
2022/03/24 08:50:16;;;;;;;15.18;8.15;;;;;;;;;;5035260;28;20074;-77
2022/03/24 08:52:42;;;;;;;15.30;6.95;;;;;;;;;;5035216;28;20029;-78
2022/03/24 08:55:09;;;;;;;11.15;6.57;;;;;;;;;;5035058;28;20107;-79
2022/03/24 08:57:35;;;;;;;13.07;7.28;;;;;;;;;;5034479;28;20037;-77
2022/03/24 09:00:04;;;;;;;11.10;6.90;;;;;;;;;;5035091;28;20025;-79
2022/03/24 09:02:30;;;;;;;17.10;7.85;;;;;;;;;;5035312;28;20033;-77
2022/03/24 09:04:56;;;;;;;15.43;8.13;;;;;;;;;;5034455;28;20063;-77
2022/03/24 09:07:22;;;;;;;13.43;8.88;;;;;;;;;;5035066;28;20036;-79
2022/03/24 09:09:49;;;;;;;15.40;7.50;;;;;;;;;;5034680;28;20495;-79
2022/03/24 09:12:15;;;;;;;13.77;7.03;;;;;;;;;;5034887;28;20025;-84
2022/03/24 09:14:42;;;;;;;10.70;7.63;;;;;;;;;;5034873;28;20555;-83
2022/03/24 09:17:09;;;;;;;12.05;7.13;;;;;;;;;;5032396;28;20109;-80
2022/03/24 09:19:35;;;;;;;13.25;8.07;;;;;;;;;;5030765;28;20032;-78
2022/03/24 09:22:08;;;;;;;11.23;8.05;;;;;;;;;;5032473;28;20100;-77
2022/03/24 09:24:34;;;;;;;12.23;6.80;;;;;;;;;;5034620;28;20036;-73
2022/03/24 09:27:01;;;;;;;13.43;7.32;;;;;;;;;;5034704;28;20104;-76
2022/03/24 09:29:27;;;;;;;12.60;7.03;;;;;;;;;;5033393;28;20030;-77
2022/03/24 09:31:53;;;;;;;14.77;7.15;;;;;;;;;;5024177;28;20041;-76
2022/03/24 09:34:19;;;;;;;11.82;5.90;;;;;;;;;;5034767;28;20052;-78
2022/03/24 09:36:45;;;;;;;14.98;8.80;;;;;;;;;;5034648;28;20033;-78
2022/03/24 09:39:11;;;;;;;9.40;7.05;;;;;;;;;;5034097;28;20025;-76
2022/03/24 09:41:40;;;;;;;29.65;14.00;;;;;;;;;;5034393;28;20025;-74
2022/03/24 09:44:07;;;;;;;16.90;9.75;;;;;;;;;;5032597;28;20041;-75
2022/03/24 09:46:33;;;;;;;17.90;8.48;;;;;;;;;;5034278;28;20037;-78
2022/03/24 09:49:00;;;;;;;16.23;9.05;;;;;;;;;;5033743;28;20021;-77
2022/03/24 09:51:27;;;;;;;14.13;7.93;;;;;;;;;;5032046;28;20404;-77
2022/03/24 09:53:53;;;;;;;16.33;7.07;;;;;;;;;;5034075;28;20053;-77
2022/03/24 09:56:19;;;;;;;24.92;17.10;;;;;;;;;;5033318;28;20086;-77
2022/03/24 09:58:48;;;;;;;15.73;10.57;;;;;;;;;;5033826;28;20090;-81
2022/03/24 10:01:15;;;;;;;11.80;7.38;;;;;;;;;;5034482;28;20022;-82
2022/03/24 10:04:04;;;;;;;15.90;8.57;;;;;;;;;;5034561;28;20032;-78
2022/03/24 10:06:33;;;;;;;13.93;7.45;;;;;;;;;;5033842;28;20042;-77
2022/03/24 10:08:59;;;;;;;13.35;8.85;;;;;;;;;;5042243;28;20079;-78
2022/03/24 10:11:26;;;;;;;13.07;7.35;;;;;;;;;;5033922;28;20057;-78
2022/03/24 10:13:54;;;;;;;14.55;8.15;;;;;;;;;;5034025;28;20085;-78
2022/03/24 10:16:39;;;;;;;13.55;7.40;;;;;;;;;;5033343;28;20022;-76
2022/03/24 10:19:16;;;;;;;10.05;6.07;;;;;;;;;;5033988;28;20049;-77
2022/03/24 10:21:43;;;;;;;11.23;7.47;;;;;;;;;;5033501;28;20090;-78
2022/03/24 10:24:17;;;;;;;12.38;6.95;;;;;;;;;;5033324;28;20029;-77
2022/03/24 10:26:47;;;;;;;13.80;7.22;;;;;;;;;;5033725;28;20037;-79
2022/03/24 10:29:14;;;;;;;12.60;7.07;;;;;;;;;;5032059;28;20029;-77
2022/03/24 10:31:43;;;;;;;15.05;7.93;;;;;;;;;;5033352;28;20021;-78
2022/03/24 10:34:10;;;;;;;13.68;7.13;;;;;;;;;;5031141;28;20029;-77
2022/03/24 10:36:36;;;;;;;13.38;8.18;;;;;;;;;;5032962;28;20059;-77
2022/03/24 10:39:07;;;;;;;13.45;8.80;;;;;;;;;;5032722;28;20370;-77
2022/03/24 10:41:38;;;;;;;10.32;7.88;;;;;;;;;;5038312;28;20025;-78
2022/03/24 10:44:09;;;;;;;19.52;9.30;;;;;;;;;;5033186;28;20029;-82
2022/03/24 10:46:36;;;;;;;12.68;8.18;;;;;;;;;;5032859;28;20117;-79
2022/03/24 10:49:15;;;;;;;12.73;8.77;;;;;;;;;;5033280;28;20033;-81
2022/03/24 10:51:43;;;;;;;12.95;8.90;;;;;;;;;;5033240;28;20041;-81
2022/03/24 10:54:25;;;;;;;12.68;9.43;;;;;;;;;;5031792;28;20511;-77
2022/03/24 10:57:10;;;;;;;13.38;8.98;;;;;;;;;;5015471;28;20036;-77
2022/03/24 10:59:38;;;;;;;10.95;8.60;;;;;;;;;;5033467;28;20057;-78
2022/03/24 11:02:04;;;;;;;11.55;7.32;;;;;;;;;;5032027;28;20026;-75
2022/03/24 11:04:31;;;;;;;12.15;8.43;;;;;;;;;;5033225;28;20476;-76
2022/03/24 11:06:57;;;;;;;13.00;8.50;;;;;;;;;;5022281;28;20096;-79
2022/03/24 11:09:24;;;;;;;13.48;9.50;;;;;;;;;;5031758;28;20056;-76
2022/03/24 11:12:09;;;;;;;14.43;9.02;;;;;;;;;;5029895;28;20072;-79
2022/03/24 11:14:35;;;;;;;;;;;;;;;;;;5017374;28;20037;-78
2022/03/24 11:17:02;;;;;;;16.52;10.10;;;;;;;;;;5031039;28;19920;-81
2022/03/24 11:19:31;;;;;;;18.90;14.32;;;;;;;;;;5029303;28;20075;-79
2022/03/24 11:22:00;;;;;;;10.85;8.43;;;;;;;;;;5029444;28;20044;-78
2022/03/24 11:24:27;;;;;;;12.23;8.90;;;;;;;;;;5031852;28;20465;-78
2022/03/24 11:26:53;;;;;;;10.63;7.95;;;;;;;;;;5031382;28;20037;-82
2022/03/24 11:29:19;;;;;;;14.95;10.05;;;;;;;;;;5031008;28;20029;-78
2022/03/24 11:31:46;;;;;;;14.52;9.45;;;;;;;;;;5031881;28;20029;-80
2022/03/24 11:34:12;;;;;;;14.35;9.98;;;;;;;;;;5031586;28;20128;-78
2022/03/24 11:36:38;;;;;;;13.77;10.05;;;;;;;;;;5030126;28;20033;-78
2022/03/24 11:39:13;;;;;;;15.85;10.05;;;;;;;;;;5028720;28;20025;-79
2022/03/24 11:41:41;;;;;;;16.35;10.30;;;;;;;;;;5020262;28;20017;-80
2022/03/24 11:44:15;;;;;;;14.35;10.32;;;;;;;;;;5030693;28;20037;-77
2022/03/24 11:46:47;;;;;;;13.30;10.40;;;;;;;;;;5029757;28;20041;-80
2022/03/24 11:49:21;;;;;;;15.65;11.20;;;;;;;;;;5031130;28;20112;-77
2022/03/24 11:51:49;;;;;;;15.93;11.13;;;;;;;;;;5027204;28;20377;-82
2022/03/24 11:54:25;;;;;;;17.00;11.90;;;;;;;;;;5029004;28;20045;-78
2022/03/24 11:57:11;;;;;;;20.25;13.80;;;;;;;;;;5029271;28;20044;-78
2022/03/24 11:59:37;;;;;;;19.27;12.05;;;;;;;;;;5029758;28;20072;-76
2022/03/24 12:02:16;;;;;;;18.70;12.43;;;;;;;;;;5031692;28;20074;-79
2022/03/24 12:04:44;;;;;;;13.32;9.70;;;;;;;;;;5029937;28;20377;-80
2022/03/24 12:07:14;;;;;;;15.95;10.32;;;;;;;;;;5021914;28;20038;-77
2022/03/24 12:09:54;;;;;;;17.05;11.48;;;;;;;;;;5010742;28;20124;-78
2022/03/24 12:12:20;;;;;;;17.05;12.13;;;;;;;;;;5020133;28;20072;-75
2022/03/24 12:14:47;;;;;;;13.98;11.13;;;;;;;;;;5030951;28;20530;-76
2022/03/24 12:17:18;;;;;;;14.98;10.88;;;;;;;;;;5029579;28;20488;-78
2022/03/24 12:20:02;;;;;;;16.85;11.27;;;;;;;;;;5028010;28;20034;-78
2022/03/24 12:22:29;;;;;;;14.43;10.02;;;;;;;;;;5031016;28;20090;-76
2022/03/24 12:25:02;;;;;;;34.88;23.75;;;;;;;;;;5027996;28;20156;-76
2022/03/24 12:27:30;;;;;;;32.08;24.00;;;;;;;;;;5029960;28;20196;-77
2022/03/24 12:30:15;;;;;;;15.65;11.90;;;;;;;;;;5029864;28;20059;-76
2022/03/24 12:32:45;;;;;;;16.58;13.07;;;;;;;;;;5030222;28;20036;-78
2022/03/24 12:35:31;;;;;;;20.48;16.85;;;;;;;;;;5024210;28;20132;-75
2022/03/24 12:37:57;;;;;;;18.00;12.88;;;;;;;;;;5030868;28;20107;-82
2022/03/24 12:40:23;;;;;;;15.40;11.63;;;;;;;;;;5031392;28;20030;-77
2022/03/24 12:42:50;;;;;;;14.93;11.13;;;;;;;;;;5031436;28;20030;-78
2022/03/24 12:45:29;;;;;;;14.20;9.82;;;;;;;;;;5031017;28;20046;-77
2022/03/24 12:47:59;;;;;;;11.02;8.55;;;;;;;;;;5026525;28;20029;-78
2022/03/24 12:50:25;;;;;;;15.20;10.13;;;;;;;;;;5029134;28;20025;-78
2022/03/24 12:53:00;;;;;;;16.13;10.65;;;;;;;;;;5023684;28;20072;-81
2022/03/24 12:55:33;;;;;;;13.98;10.10;;;;;;;;;;5022859;28;20547;-75
2022/03/24 12:57:59;;;;;;;13.85;10.52;;;;;;;;;;5018350;28;20049;-73
2022/03/24 13:00:27;;;;;;;14.85;9.13;;;;;;;;;;5011519;28;20025;-77
2022/03/24 13:02:53;;;;;;;15.90;10.27;;;;;;;;;;5013164;28;20035;-77
2022/03/24 13:05:24;;;;;;;12.95;9.57;;;;;;;;;;5023264;28;20041;-81
2022/03/24 13:07:52;;;;;;;13.60;9.50;;;;;;;;;;5012543;28;20053;-80
2022/03/24 13:10:19;;;;;;;14.82;10.73;;;;;;;;;;5012835;28;20036;-78
2022/03/24 13:12:46;;;;;;;15.10;10.27;;;;;;;;;;5024434;28;20505;-78
2022/03/24 13:15:31;;;;;;;14.43;9.70;;;;;;;;;;5032375;28;20029;-77
2022/03/24 13:17:58;;;;;;;14.07;10.15;;;;;;;;;;5032211;28;20068;-77
2022/03/24 13:20:26;;;;;;;13.88;10.63;;;;;;;;;;5032429;28;20036;-77
2022/03/24 13:22:53;;;;;;;11.88;8.50;;;;;;;;;;5032364;28;20389;-80
2022/03/24 13:25:21;;;;;;;10.90;8.77;;;;;;;;;;5031631;28;20041;-76
2022/03/24 13:27:51;;;;;;;11.43;7.43;;;;;;;;;;5030635;28;20037;-78
2022/03/24 13:30:22;;;;;;;9.45;7.03;;;;;;;;;;5035264;28;20053;-76
2022/03/24 13:33:06;;;;;;;11.38;8.18;;;;;;;;;;5035334;28;20025;-77
2022/03/24 13:38:22;;;;;;;11.30;6.87;;;;;;;;;;5035519;28;20418;-77
2022/03/24 13:40:51;;;;;;;11.38;6.07;;;;;;;;;;5035826;28;20477;-80
2022/03/24 13:43:18;;;;;;;13.20;7.95;;;;;;;;;;5035539;28;20025;-76
2022/03/24 13:45:47;;;;;;;11.52;6.82;;;;;;;;;;5034681;28;20044;-78
2022/03/24 13:48:32;;;;;;;10.25;6.15;;;;;;;;;;5035115;28;20060;-79
2022/03/24 13:51:05;;;;;;;8.95;5.88;;;;;;;;;;5035042;28;20112;-79
2022/03/24 13:53:32;;;;;;;12.48;7.63;;;;;;;;;;5030258;28;20445;-82
2022/03/24 13:56:08;;;;;;;11.07;8.20;;;;;;;;;;5032648;28;20032;-80
2022/03/24 13:58:35;;;;;;;11.93;8.20;;;;;;;;;;5048135;28;20041;-80
2022/03/24 14:01:03;;;;;;;10.50;7.65;;;;;;;;;;5034582;28;20093;-80
2022/03/24 14:03:29;;;;;;;9.52;7.00;;;;;;;;;;5031239;28;20489;-77
2022/03/24 14:05:57;;;;;;;8.18;6.05;;;;;;;;;;5034975;28;20397;-81
2022/03/24 14:08:33;;;;;;;9.43;6.43;;;;;;;;;;5034152;28;20076;-78
2022/03/24 14:10:59;;;;;;;11.30;6.82;;;;;;;;;;5034175;28;20021;-80
2022/03/24 14:13:26;;;;;;;9.10;7.15;;;;;;;;;;5031721;28;20029;-80
2022/03/24 14:16:06;;;;;;;9.70;7.18;;;;;;;;;;5033268;28;20030;-78
2022/03/24 14:18:32;;;;;;;9.55;6.63;;;;;;;;;;5031723;28;20120;-77
2022/03/24 14:20:59;;;;;;;11.90;7.35;;;;;;;;;;5033410;28;20053;-77
2022/03/24 14:23:26;;;;;;;10.20;8.18;;;;;;;;;;5033464;28;20428;-73
2022/03/24 14:25:52;;;;;;;11.52;8.10;;;;;;;;;;5032957;28;20504;-80
2022/03/24 14:28:51;;;;;;;11.35;8.57;;;;;;;;;;5032713;28;20029;-77
2022/03/24 14:31:17;;;;;;;13.13;7.60;;;;;;;;;;5021748;28;20888;-76
2022/03/24 14:33:44;;;;;;;10.85;7.18;;;;;;;;;;5033679;28;20112;-76
2022/03/24 14:36:10;;;;;;;17.35;9.63;;;;;;;;;;5034166;28;20112;-76
2022/03/24 14:38:36;;;;;;;18.60;12.13;;;;;;;;;;5034272;28;20109;-76
2022/03/24 14:41:03;;;;;;;15.50;10.57;;;;;;;;;;5032365;28;20025;-77
2022/03/24 14:43:29;;;;;;;14.93;10.00;;;;;;;;;;5033991;28;20033;-77
2022/03/24 14:45:56;;;;;;;15.25;10.75;;;;;;;;;;5033028;28;20056;-76